Terminal Aerodrome Forecast
Issued by NWS

Home | Current Version | Previous Version | Text Only | Print | Product List | Glossary On
Versions: 1 2 3 4 5 6 7 8 9 10 11 12 13 14 15 16
000
FTUS41 KBTV 060527
TAFSLK
TAF
KSLK 060527Z 0606/0706 00000KT P6SM SKC
      TEMPO 0608/0610 3SM BR
     FM061600 23007KT P6SM FEW040 FEW250
     FM070500 22009KT P6SM BKN080=

USA.gov is the U.S. government's official web portal to all federal, state and local government web resources and services.